Terminal Aerodrome Forecast
Issued by NWS

Home | Current Version | Previous Version | Graphics & Text | Print | Product List | Glossary On
Versions: 1 2 3 4 5 6 7 8 9 10 11 12 13 14 15 16 17 18 19 20 21 22 23
000
FTUS43 KICT 271055 AAB
TAFHUT
TAF AMD
KHUT 271055Z 2711/2806 06005KT P6SM OVC018
     FM271200 14004KT P6SM OVC013
     FM271500 16007KT P6SM OVC025
     FM271700 15007KT P6SM SCT025 BKN080
     FM272000 15009KT P6SM SCT035=

USA.gov is the U.S. government's official web portal to all federal, state and local government web resources and services.